Son Servera, Spain
Current Conditions -  °F | °C
As of 5:00 AM on Wednesday 22 Oct 2014 (Local Time) from LEPA Reporting Station
Clear Clear  
Wind Chill: 73°   Ceiling: Unl
Heat Index: 73°   Visibility: 6mi
Dew Point: 61°   Wind: 10mph
Humidity: 65%   Direction: 330°NNW
Pressure: 30.06"   Gusts: NA
Location:  39.62°N, 3.36°E
Report Text: LEPA 220300Z 33009KT 300V010 CAVOK 23/16 Q1018 NOSIG
Loading
Personal Weather Stations






























Interactive Weather Map
Tropical Storm Tracking
New forecast layout! Learn more

10-Day Weather Forecast

Advertisements
Track Severe Weather on mobile